createdAt,value
2022-11-01T00:02:01.345Z,10.40
2022-11-01T00:04:28.281Z,9.40
2022-11-01T00:06:55.183Z,9.48
2022-11-01T00:09:22.171Z,8.88
2022-11-01T00:11:49.037Z,9.25
2022-11-01T00:14:17.749Z,10.35
2022-11-01T00:16:44.750Z,8.88
2022-11-01T00:19:11.900Z,10.52
2022-11-01T00:21:38.791Z,8.82
2022-11-01T00:24:06.002Z,9.57
2022-11-01T00:26:32.890Z,9.82
2022-11-01T00:28:59.986Z,9.52
2022-11-01T00:31:27.024Z,9.63
2022-11-01T00:33:53.860Z,10.35
2022-11-01T00:36:20.870Z,8.60
2022-11-01T00:38:52.216Z,10.10
2022-11-01T00:41:21.052Z,10.00
2022-11-01T00:43:48.874Z,11.10
2022-11-01T00:46:16.389Z,10.35
2022-11-01T00:48:43.248Z,9.77
2022-11-01T00:51:10.277Z,11.82
2022-11-01T00:53:37.218Z,11.50
2022-11-01T00:56:06.214Z,12.27
2022-11-01T00:58:33.291Z,12.10
2022-11-01T01:01:00.643Z,13.02
2022-11-01T01:03:27.702Z,13.85
2022-11-01T01:05:56.145Z,12.15
2022-11-01T01:08:23.909Z,12.02
2022-11-01T01:10:51.417Z,11.52
2022-11-01T01:13:18.621Z,12.55
2022-11-01T01:15:45.736Z,49.65
2022-11-01T01:18:13.320Z,35.22
2022-11-01T01:20:40.394Z,15.85
2022-11-01T01:23:07.420Z,13.77
2022-11-01T01:25:34.817Z,14.40
2022-11-01T01:28:02.599Z,14.13
2022-11-01T01:30:29.645Z,13.65
2022-11-01T01:32:56.485Z,12.63
2022-11-01T01:35:23.357Z,12.65
2022-11-01T01:37:50.202Z,12.52
2022-11-01T01:40:17.106Z,11.93
2022-11-01T01:42:44.114Z,10.75
2022-11-01T01:45:23.587Z,11.57
2022-11-01T01:47:53.114Z,11.82
2022-11-01T01:50:28.679Z,11.73
2022-11-01T01:53:01.404Z,11.85
2022-11-01T01:55:36.551Z,10.90
2022-11-01T01:58:04.261Z,12.10
2022-11-01T02:00:31.282Z,11.45
2022-11-01T02:02:58.483Z,11.77
2022-11-01T02:05:41.285Z,22.90
2022-11-01T02:08:08.294Z,17.00
2022-11-01T02:10:35.689Z,16.35
2022-11-01T02:13:02.612Z,12.18
2022-11-01T02:15:40.493Z,12.32
2022-11-01T02:19:01.406Z,10.60
2022-11-01T02:22:03.608Z,11.25
2022-11-01T02:24:49.465Z,12.05
2022-11-01T02:27:24.496Z,11.00
2022-11-01T02:30:01.828Z,11.93
2022-11-01T02:33:02.295Z,12.15
2022-11-01T02:35:32.113Z,11.82
2022-11-01T02:37:58.880Z,11.25
2022-11-01T02:40:51.356Z,11.52
2022-11-01T02:43:33.443Z,12.10
2022-11-01T02:46:23.304Z,12.43
2022-11-01T02:48:51.044Z,11.50
2022-11-01T02:51:21.644Z,11.55
2022-11-01T02:53:48.620Z,19.42
2022-11-01T02:56:17.624Z,12.77
2022-11-01T02:58:46.763Z,13.05
2022-11-01T03:01:22.363Z,13.70
2022-11-01T03:03:50.911Z,13.10
2022-11-01T03:25:59.086Z,12.55
2022-11-01T03:28:36.478Z,12.63
2022-11-01T03:31:17.504Z,13.32
2022-11-01T03:33:58.012Z,12.00
2022-11-01T03:36:29.689Z,12.27
2022-11-01T03:39:06.996Z,12.70
2022-11-01T03:41:39.269Z,13.85
2022-11-01T03:44:06.982Z,11.88
2022-11-01T03:46:33.935Z,12.27
2022-11-01T03:49:00.778Z,12.38
2022-11-01T03:51:27.692Z,12.68
2022-11-01T03:53:54.768Z,13.20
2022-11-01T03:56:21.841Z,13.05
2022-11-01T03:58:49.042Z,13.40
2022-11-01T04:01:17.660Z,13.55
2022-11-01T04:03:45.185Z,16.45
2022-11-01T04:06:12.105Z,18.13
2022-11-01T04:08:38.999Z,19.20
2022-11-01T04:11:05.911Z,21.05
2022-11-01T04:13:32.783Z,21.38
2022-11-01T04:16:18.082Z,22.02
2022-11-01T04:19:03.804Z,22.25
2022-11-01T04:21:31.473Z,24.63
2022-11-01T04:23:58.381Z,23.35
2022-11-01T04:26:25.792Z,25.02
2022-11-01T04:28:58.618Z,26.13
2022-11-01T04:31:31.113Z,24.63
2022-11-01T04:33:59.777Z,24.70
2022-11-01T04:36:27.515Z,26.25
2022-11-01T04:38:56.482Z,27.65
2022-11-01T04:41:28.057Z,27.30
2022-11-01T04:43:57.064Z,26.50
2022-11-01T04:46:23.974Z,27.63
2022-11-01T04:48:50.895Z,24.95
2022-11-01T04:51:17.807Z,25.52
2022-11-01T04:53:44.596Z,26.98
2022-11-01T04:56:13.499Z,27.40
2022-11-01T04:58:44.835Z,25.45
2022-11-01T05:01:14.704Z,24.83
2022-11-01T05:03:42.131Z,26.35
2022-11-01T05:06:09.022Z,23.80
2022-11-01T05:08:35.864Z,23.58
2022-11-01T05:11:02.760Z,21.77
2022-11-01T05:13:29.637Z,18.70
2022-11-01T05:18:43.507Z,16.83
2022-11-01T05:21:10.553Z,18.45
2022-11-01T05:23:37.450Z,18.42
2022-11-01T05:26:04.370Z,28.83
2022-11-01T05:28:31.237Z,26.23
2022-11-01T05:30:58.785Z,21.38
2022-11-01T05:33:25.726Z,22.10
2022-11-01T05:35:52.784Z,22.98
2022-11-01T05:38:19.714Z,17.52
2022-11-01T05:40:46.682Z,14.90
2022-11-01T05:43:13.502Z,16.45
2022-11-01T05:45:40.397Z,14.32
2022-11-01T05:48:07.293Z,15.20
2022-11-01T05:50:34.131Z,13.90
2022-11-01T05:53:08.265Z,17.15
2022-11-01T05:58:03.184Z,16.20
2022-11-01T06:00:30.110Z,16.48
2022-11-01T06:03:00.845Z,15.57
2022-11-01T06:05:28.799Z,15.52
2022-11-01T06:07:55.856Z,15.75
2022-11-01T06:10:22.801Z,16.17
2022-11-01T06:12:49.833Z,16.60
2022-11-01T06:15:16.760Z,16.05
2022-11-01T06:17:43.560Z,17.33
2022-11-01T06:20:11.498Z,15.70
2022-11-01T06:22:38.611Z,18.27
2022-11-01T06:25:06.964Z,16.20
2022-11-01T06:27:33.884Z,16.85
2022-11-01T06:30:00.715Z,15.43
2022-11-01T06:32:27.557Z,16.25
2022-11-01T06:34:54.571Z,15.70
2022-11-01T06:37:21.452Z,15.73
2022-11-01T06:39:48.336Z,15.05
2022-11-01T06:42:15.246Z,14.40
2022-11-01T06:44:42.360Z,16.48
2022-11-01T06:47:09.335Z,17.30
2022-11-01T06:49:36.135Z,17.67
2022-11-01T06:52:03.469Z,16.42
2022-11-01T06:54:30.270Z,16.30
2022-11-01T06:56:57.191Z,16.02
2022-11-01T06:59:25.083Z,16.83
2022-11-01T07:01:55.052Z,17.13
2022-11-01T07:04:22.220Z,16.25
2022-11-01T07:06:49.333Z,15.02
2022-11-01T07:09:16.213Z,16.70
2022-11-01T07:11:43.088Z,18.00
2022-11-01T07:14:10.267Z,15.60
2022-11-01T07:16:39.033Z,13.73
2022-11-01T07:19:05.937Z,11.95
2022-11-01T07:21:33.131Z,14.40
2022-11-01T07:24:00.296Z,13.57
2022-11-01T07:26:27.154Z,13.07
2022-11-01T07:28:54.028Z,12.85
2022-11-01T07:31:21.281Z,10.10
2022-11-01T07:33:48.151Z,8.60
2022-11-01T07:36:14.984Z,7.90
2022-11-01T07:38:41.806Z,6.88
2022-11-01T07:41:09.256Z,8.20
2022-11-01T07:43:36.857Z,5.75
2022-11-01T07:46:05.688Z,5.88
2022-11-01T07:48:33.454Z,7.47
2022-11-01T07:51:00.436Z,6.57
2022-11-01T07:53:27.261Z,6.32
2022-11-01T07:55:54.108Z,6.32
2022-11-01T07:58:20.905Z,6.57
2022-11-01T08:00:48.206Z,6.55
2022-11-01T08:03:17.433Z,5.82
2022-11-01T08:05:45.150Z,6.82
2022-11-01T08:08:13.471Z,6.50
2022-11-01T08:10:41.073Z,7.10
2022-11-01T08:13:22.748Z,7.30
2022-11-01T08:15:51.028Z,7.30
2022-11-01T08:18:18.941Z,5.00
2022-11-01T08:20:45.883Z,6.97
2022-11-01T08:23:12.973Z,6.55
2022-11-01T08:25:40.598Z,4.90
2022-11-01T08:28:12.892Z,5.10
2022-11-01T08:30:41.365Z,5.20
2022-11-01T08:33:08.289Z,6.20
2022-11-01T08:35:35.912Z,6.03
2022-11-01T08:38:03.934Z,5.65
2022-11-01T08:40:33.037Z,4.57
2022-11-01T08:43:00.420Z,4.70
2022-11-01T08:45:27.934Z,5.13
2022-11-01T08:48:03.717Z,4.70
2022-11-01T08:50:31.652Z,4.00
2022-11-01T08:52:58.520Z,4.20
2022-11-01T08:55:25.518Z,4.00
2022-11-01T08:57:52.470Z,4.03
2022-11-01T09:00:19.523Z,4.82
2022-11-01T09:02:46.699Z,4.32
2022-11-01T09:05:13.609Z,4.00
2022-11-01T09:07:40.519Z,4.88
2022-11-01T09:10:07.893Z,4.47
2022-11-01T09:12:35.244Z,4.65
2022-11-01T09:15:02.802Z,4.95
2022-11-01T09:17:29.750Z,5.05
2022-11-01T09:19:56.529Z,4.63
2022-11-01T09:22:23.731Z,4.32
2022-11-01T09:24:51.659Z,5.05
2022-11-01T09:27:18.536Z,5.25
2022-11-01T09:29:48.043Z,4.82
2022-11-01T09:32:17.870Z,4.00
2022-11-01T09:34:45.340Z,4.63
2022-11-01T09:37:12.231Z,4.90
2022-11-01T09:39:39.082Z,4.90
2022-11-01T09:42:12.299Z,4.40
2022-11-01T09:44:44.118Z,4.35
2022-11-01T09:47:18.962Z,5.13
2022-11-01T09:49:50.184Z,4.97
2022-11-01T09:52:22.519Z,5.03
2022-11-01T09:54:50.163Z,4.45
2022-11-01T09:57:29.512Z,5.00
2022-11-01T10:00:16.307Z,4.45
2022-11-01T10:02:55.092Z,3.88
2022-11-01T10:05:21.985Z,4.50
2022-11-01T10:08:11.915Z,4.93
2022-11-01T10:10:54.083Z,4.30
2022-11-01T10:13:58.709Z,5.10
2022-11-01T10:16:36.569Z,4.97
2022-11-01T10:19:05.108Z,4.30
2022-11-01T10:21:43.136Z,5.28
2022-11-01T10:24:45.975Z,5.07
2022-11-01T10:27:26.645Z,4.45
2022-11-01T10:30:06.284Z,4.38
2022-11-01T10:32:43.172Z,4.70
2022-11-01T10:35:32.568Z,5.03
2022-11-01T10:38:19.114Z,4.65
2022-11-01T10:41:01.901Z,5.00
2022-11-01T10:43:28.801Z,4.70
2022-11-01T10:45:57.885Z,4.40
2022-11-01T10:48:38.465Z,4.57
2022-11-01T10:51:08.462Z,5.07
2022-11-01T10:53:44.642Z,4.45
2022-11-01T10:56:21.271Z,4.75
2022-11-01T10:59:18.077Z,4.93
2022-11-01T11:01:45.854Z,4.78
2022-11-01T11:04:16.283Z,5.35
2022-11-01T11:06:44.077Z,5.85
2022-11-01T11:09:40.719Z,4.57
2022-11-01T11:12:14.865Z,5.60
2022-11-01T11:14:42.717Z,5.30
2022-11-01T11:17:25.006Z,5.75
2022-11-01T11:19:55.670Z,4.55
2022-11-01T11:22:23.269Z,5.05
2022-11-01T11:24:52.878Z,4.85
2022-11-01T11:27:23.356Z,4.90
2022-11-01T11:29:54.073Z,5.30
2022-11-01T11:32:24.027Z,4.60
2022-11-01T11:34:59.817Z,5.15
2022-11-01T11:37:30.227Z,4.80
2022-11-01T11:40:05.998Z,5.65
2022-11-01T11:42:33.446Z,6.35
2022-11-01T11:45:30.558Z,5.05
2022-11-01T11:48:16.010Z,4.55
2022-11-01T11:50:43.767Z,4.82
2022-11-01T11:53:29.488Z,5.03
2022-11-01T11:56:03.431Z,4.40
2022-11-01T11:58:40.682Z,4.40
2022-11-01T12:01:11.685Z,4.63
2022-11-01T12:04:06.133Z,4.85
2022-11-01T12:06:41.156Z,5.25
2022-11-01T12:09:35.026Z,4.82
2022-11-01T12:12:15.194Z,5.50
2022-11-01T12:14:43.007Z,5.35
2022-11-01T12:17:48.850Z,5.28
2022-11-01T12:20:21.023Z,4.95
2022-11-01T12:23:02.891Z,5.25
2022-11-01T12:25:29.937Z,6.03
2022-11-01T12:28:01.136Z,5.13
2022-11-01T12:30:32.812Z,5.70
2022-11-01T12:33:02.942Z,6.03
2022-11-01T12:35:33.482Z,5.10
2022-11-01T12:38:12.310Z,5.47
2022-11-01T12:40:42.610Z,5.88
2022-11-01T12:43:19.180Z,5.40
2022-11-01T12:45:52.149Z,4.25
2022-11-01T12:48:50.325Z,6.65
2022-11-01T12:51:26.100Z,5.03
2022-11-01T12:54:06.088Z,5.75
2022-11-01T12:56:33.106Z,5.88
2022-11-01T12:59:00.276Z,5.00
2022-11-01T13:01:29.868Z,5.25
2022-11-01T13:04:08.998Z,4.78
2022-11-01T13:07:03.935Z,5.13
2022-11-01T13:09:33.658Z,5.65
2022-11-01T13:12:18.725Z,5.55
2022-11-01T13:15:03.479Z,5.60
2022-11-01T13:17:55.410Z,4.75
2022-11-01T13:20:40.751Z,5.60
2022-11-01T13:23:23.416Z,5.18
2022-11-01T13:26:09.046Z,5.30
2022-11-01T13:29:08.985Z,6.28
2022-11-01T13:31:53.449Z,6.05
2022-11-01T13:34:35.621Z,5.25
2022-11-01T13:37:13.619Z,5.40
2022-11-01T13:40:17.477Z,5.68
2022-11-01T13:42:57.774Z,5.30
2022-11-01T13:45:56.369Z,5.32
2022-11-01T13:48:43.732Z,5.65
2022-11-01T13:51:50.676Z,6.15
2022-11-01T13:54:23.568Z,5.07
2022-11-01T13:57:01.305Z,5.82
2022-11-01T13:59:37.166Z,5.88
2022-11-01T14:02:27.554Z,5.60
2022-11-01T14:05:03.205Z,5.95
2022-11-01T14:07:39.531Z,6.10
2022-11-01T14:10:22.709Z,6.28
2022-11-01T14:13:07.693Z,5.68
2022-11-01T14:15:39.569Z,5.63
2022-11-01T14:18:10.793Z,6.45
2022-11-01T14:20:46.425Z,6.82
2022-11-01T14:23:28.335Z,7.18
2022-11-01T14:26:18.462Z,6.88
2022-11-01T14:28:47.913Z,6.40
2022-11-01T14:31:17.624Z,6.07
2022-11-01T14:33:48.403Z,7.90
2022-11-01T14:36:18.387Z,7.28
2022-11-01T14:38:51.884Z,7.70
2022-11-01T14:41:20.606Z,6.03
2022-11-01T14:43:52.194Z,6.47
2022-11-01T14:46:25.819Z,6.30
2022-11-01T14:49:03.233Z,6.45
2022-11-01T14:51:41.806Z,5.78
2022-11-01T14:54:42.563Z,5.45
2022-11-01T14:57:28.019Z,6.47
2022-11-01T14:59:56.211Z,7.13
2022-11-01T15:02:25.697Z,6.97
2022-11-01T15:05:01.703Z,5.00
2022-11-01T15:07:32.863Z,6.65
2022-11-01T15:10:04.689Z,7.00
2022-11-01T15:27:38.874Z,6.47
2022-11-01T15:30:07.923Z,6.43
2022-11-01T15:32:35.544Z,7.13
2022-11-01T15:35:19.127Z,7.38
2022-11-01T15:37:53.278Z,7.63
2022-11-01T15:42:57.794Z,6.13
2022-11-01T15:45:33.797Z,7.18
2022-11-01T15:48:06.591Z,7.50
2022-11-01T15:50:36.706Z,7.60
2022-11-01T15:53:08.223Z,7.00
2022-11-01T15:55:40.786Z,6.75
2022-11-01T15:58:10.578Z,7.20
2022-11-01T16:00:44.611Z,7.25
2022-11-01T16:03:25.475Z,6.43
2022-11-01T16:05:59.779Z,7.00
2022-11-01T16:08:43.198Z,7.38
2022-11-01T16:11:10.328Z,6.53
2022-11-01T16:13:37.590Z,7.00
2022-11-01T16:16:16.254Z,6.28
2022-11-01T16:18:45.322Z,7.55
2022-11-01T16:21:30.878Z,7.50
2022-11-01T16:24:15.605Z,7.95
2022-11-01T16:26:54.692Z,7.82
2022-11-01T16:29:42.545Z,7.65
2022-11-01T16:32:24.097Z,8.38
2022-11-01T16:34:51.290Z,7.22
2022-11-01T16:37:21.477Z,7.90
2022-11-01T16:39:48.491Z,6.97
2022-11-01T16:42:16.205Z,7.28
2022-11-01T16:44:44.549Z,7.47
2022-11-01T16:47:13.988Z,8.55
2022-11-01T16:49:56.977Z,8.20
2022-11-01T16:52:23.738Z,6.90
2022-11-01T16:54:53.617Z,6.95
2022-11-01T16:57:29.182Z,8.75
2022-11-01T16:59:56.560Z,8.00
2022-11-01T17:02:24.090Z,7.65
2022-11-01T17:04:54.557Z,7.03
2022-11-01T17:07:21.380Z,8.68
2022-11-01T17:09:48.404Z,7.55
2022-11-01T17:12:15.287Z,8.27
2022-11-01T17:14:43.189Z,7.75
2022-11-01T17:17:17.154Z,6.82
2022-11-01T17:19:47.706Z,7.80
2022-11-01T17:22:20.889Z,7.93
2022-11-01T17:24:48.037Z,7.93
2022-11-01T17:27:15.759Z,7.50
2022-11-01T17:29:43.153Z,6.57
2022-11-01T17:32:11.562Z,8.45
2022-11-01T17:34:39.102Z,9.18
2022-11-01T17:37:06.660Z,12.00
2022-11-01T17:39:33.655Z,9.73
2022-11-01T17:42:00.604Z,10.38
2022-11-01T17:44:27.734Z,8.60
2022-11-01T17:46:54.751Z,10.82
2022-11-01T17:49:24.415Z,10.23
2022-11-01T17:51:54.879Z,8.98
2022-11-01T17:54:23.497Z,9.00
2022-11-01T17:56:51.539Z,8.48
2022-11-01T17:59:18.820Z,9.93
2022-11-01T18:01:45.805Z,10.80
2022-11-01T18:04:15.135Z,12.60
2022-11-01T18:06:42.620Z,10.30
2022-11-01T18:09:26.141Z,10.02
2022-11-01T18:12:09.954Z,14.43
2022-11-01T18:15:03.220Z,14.65
2022-11-01T18:18:03.706Z,14.05
2022-11-01T18:20:48.799Z,14.30
2022-11-01T18:23:20.250Z,15.18
2022-11-01T18:25:49.009Z,17.48
2022-11-01T18:28:25.365Z,14.27
2022-11-01T18:31:11.182Z,15.45
2022-11-01T18:33:58.569Z,15.07
2022-11-01T18:36:32.913Z,13.88
2022-11-01T18:39:21.697Z,14.25
2022-11-01T18:41:49.914Z,13.18
2022-11-01T18:44:17.213Z,14.77
2022-11-01T18:46:55.317Z,11.98
2022-11-01T18:49:25.862Z,12.70
2022-11-01T18:51:55.559Z,17.20
2022-11-01T18:54:26.054Z,13.52
2022-11-01T18:57:16.191Z,11.98
2022-11-01T18:59:44.286Z,13.93
2022-11-01T19:02:11.145Z,15.00
2022-11-01T19:04:41.147Z,14.77
2022-11-01T19:07:39.389Z,15.32
2022-11-01T19:10:24.102Z,13.45
2022-11-01T19:12:56.486Z,12.32
2022-11-01T19:15:30.639Z,15.85
2022-11-01T19:18:03.558Z,18.55
2022-11-01T19:20:34.593Z,17.80
2022-11-01T19:23:03.509Z,18.40
2022-11-01T19:25:32.853Z,18.70
2022-11-01T19:28:03.215Z,19.75
2022-11-01T19:30:32.782Z,18.80
2022-11-01T19:33:19.518Z,18.23
2022-11-01T19:35:52.247Z,19.50
2022-11-01T19:38:20.069Z,16.15
2022-11-01T19:40:49.962Z,16.05
2022-11-01T19:43:20.657Z,14.55
2022-11-01T19:45:50.910Z,16.10
2022-11-01T19:48:22.399Z,15.07
2022-11-01T19:50:49.548Z,12.63
2022-11-01T19:53:30.192Z,14.82
2022-11-01T19:56:05.752Z,12.60
2022-11-01T19:58:39.320Z,16.85
2022-11-01T20:01:16.829Z,13.60
2022-11-01T20:03:56.932Z,13.57
2022-11-01T20:06:35.482Z,14.77
2022-11-01T20:09:31.138Z,13.50
2022-11-01T20:11:58.054Z,12.80
2022-11-01T20:14:24.923Z,12.45
2022-11-01T20:16:51.989Z,12.43
2022-11-01T20:19:18.884Z,12.10
2022-11-01T20:21:45.990Z,12.43
2022-11-01T20:24:13.301Z,13.00
2022-11-01T20:26:40.233Z,12.38
2022-11-01T20:29:07.107Z,12.30
2022-11-01T20:31:34.115Z,12.32
2022-11-01T20:34:01.055Z,13.68
2022-11-01T20:36:28.695Z,10.98
2022-11-01T20:38:55.743Z,11.27
2022-11-01T20:41:22.794Z,12.40
2022-11-01T20:43:49.717Z,11.10
2022-11-01T20:46:16.784Z,11.75
2022-11-01T20:48:45.268Z,11.52
2022-11-01T20:51:13.541Z,9.48
2022-11-01T20:53:41.261Z,10.57
2022-11-01T20:56:09.142Z,11.13
2022-11-01T20:58:41.845Z,11.57
2022-11-01T21:01:17.286Z,11.48
2022-11-01T21:03:44.542Z,10.63
2022-11-01T21:06:13.722Z,12.00
2022-11-01T21:08:43.153Z,11.13
2022-11-01T21:11:18.069Z,11.30
2022-11-01T21:13:45.762Z,10.52
2022-11-01T21:16:29.569Z,11.43
2022-11-01T21:19:03.309Z,10.77
2022-11-01T21:21:45.265Z,10.75
2022-11-01T21:24:28.936Z,9.45
2022-11-01T21:27:05.579Z,9.88
2022-11-01T21:29:32.659Z,11.25
2022-11-01T21:31:59.621Z,10.57
2022-11-01T21:34:29.647Z,11.43
2022-11-01T21:36:58.601Z,10.07
2022-11-01T21:39:27.437Z,8.95
2022-11-01T21:41:54.247Z,10.90
2022-11-01T21:44:39.997Z,10.00
2022-11-01T21:47:07.918Z,10.57
2022-11-01T21:49:36.663Z,9.98
2022-11-01T21:52:05.821Z,10.18
2022-11-01T21:54:35.890Z,10.60
2022-11-01T21:57:05.201Z,10.93
2022-11-01T21:59:32.472Z,12.07
2022-11-01T22:02:01.467Z,10.93
2022-11-01T22:04:32.965Z,10.50
2022-11-01T22:07:01.843Z,10.85
2022-11-01T22:09:29.855Z,11.45
2022-11-01T22:11:56.907Z,10.80
2022-11-01T22:14:24.421Z,10.63
2022-11-01T22:16:51.816Z,11.52
2022-11-01T22:19:18.718Z,12.88
2022-11-01T22:24:18.002Z,10.88
2022-11-01T22:26:44.807Z,11.55
2022-11-01T22:29:11.659Z,11.38
2022-11-01T22:31:38.530Z,11.07
2022-11-01T22:34:05.333Z,12.77
2022-11-01T22:36:36.284Z,10.10
2022-11-01T22:39:13.062Z,11.82
2022-11-01T22:41:40.740Z,11.52
2022-11-01T22:44:14.477Z,11.00
2022-11-01T22:46:59.011Z,11.00
2022-11-01T22:49:28.271Z,11.27
2022-11-01T22:52:05.568Z,10.48
2022-11-01T22:54:40.924Z,11.30
2022-11-01T22:57:16.046Z,11.13
2022-11-01T22:59:52.221Z,10.75
2022-11-01T23:02:36.093Z,11.57
2022-11-01T23:05:05.979Z,12.00
2022-11-01T23:07:40.079Z,12.27
2022-11-01T23:10:30.918Z,11.85
2022-11-01T23:13:19.539Z,12.43
2022-11-01T23:15:46.597Z,12.10
2022-11-01T23:18:17.374Z,13.05
2022-11-01T23:20:48.360Z,13.07
2022-11-01T23:23:19.894Z,12.10
2022-11-01T23:25:47.528Z,12.55
2022-11-01T23:28:15.263Z,12.93
2022-11-01T23:30:43.028Z,11.45
2022-11-01T23:33:15.752Z,11.05
2022-11-01T23:35:50.769Z,11.77
2022-11-01T23:38:34.711Z,12.27
2022-11-01T23:41:02.601Z,12.68
2022-11-01T23:43:36.338Z,12.75
2022-11-01T23:46:04.529Z,12.63
2022-11-01T23:48:31.402Z,12.32
2022-11-01T23:50:58.366Z,12.73
2022-11-01T23:53:35.357Z,11.57
2022-11-01T23:56:05.929Z,12.88
2022-11-01T23:58:34.723Z,13.65
